Time;durP1;ratioP1;P1;durP2;ratioP2;P2;SDS_P1;SDS_P2;PMS_P1;PMS_P2;Temp;Humidity;BMP_temperature;BMP_pressure;BME280_temperature;BME280_humidity;BME280_pressure;Samples;Min_cycle;Max_cycle;Signal;HPM_P1;HPM_P2
2022/06/25 00:01:51;;;;;;;2.23;2.03;;;15.20;99.90;;;;;;4994821;28;20284;-75
2022/06/25 00:07:00;;;;;;;2.60;2.40;;;15.20;99.90;;;;;;4995377;28;20195;-76
2022/06/25 00:09:26;;;;;;;2.63;2.43;;;15.20;99.90;;;;;;4994909;28;20501;-75
2022/06/25 00:14:37;;;;;;;2.10;2.00;;;15.20;99.90;;;;;;4994899;28;20425;-75
2022/06/25 00:17:03;;;;;;;2.50;2.30;;;15.10;99.90;;;;;;4995109;28;20978;-75
2022/06/25 00:19:28;;;;;;;2.30;2.10;;;15.00;99.90;;;;;;4994855;28;20414;-76
2022/06/25 00:21:54;;;;;;;3.10;2.03;;;15.00;99.90;;;;;;4994513;28;20202;-75
2022/06/25 00:24:20;;;;;;;4.43;2.50;;;15.00;99.90;;;;;;4994976;28;20186;-76
2022/06/25 00:26:45;;;;;;;2.90;2.17;;;15.00;99.90;;;;;;4994702;28;20427;-75
2022/06/25 00:29:11;;;;;;;2.60;2.40;;;15.00;99.90;;;;;;4994887;28;20179;-75
2022/06/25 00:31:37;;;;;;;5.53;2.90;;;15.00;99.90;;;;;;4994196;28;20217;-75
2022/06/25 00:34:03;;;;;;;6.30;2.40;;;14.90;99.90;;;;;;4994791;28;20719;-76
2022/06/25 00:36:29;;;;;;;2.83;2.63;;;14.90;99.90;;;;;;4994898;28;20458;-75
2022/06/25 00:38:55;;;;;;;10.13;2.00;;;14.90;99.90;;;;;;4994683;28;20476;-76
2022/06/25 00:41:20;;;;;;;6.23;2.67;;;14.90;99.90;;;;;;4994345;28;20187;-75
2022/06/25 00:43:46;;;;;;;2.83;2.57;;;14.90;99.90;;;;;;4994788;28;20206;-75
2022/06/25 00:46:11;;;;;;;2.87;2.77;;;14.80;99.90;;;;;;4994392;28;20184;-75
2022/06/25 00:48:37;;;;;;;3.77;2.97;;;14.80;99.90;;;;;;4994349;28;20271;-75
2022/06/25 00:51:09;;;;;;;3.00;2.83;;;14.80;99.90;;;;;;4993766;28;20199;-76
2022/06/25 00:53:35;;;;;;;2.20;2.10;;;14.80;99.90;;;;;;4994408;28;20168;-76
2022/06/25 00:56:05;;;;;;;2.40;2.30;;;14.70;99.90;;;;;;4994006;28;20568;-76
2022/06/25 00:58:33;;;;;;;3.23;2.27;;;14.70;99.90;;;;;;4992987;28;20413;-76
2022/06/25 02:32:24;;;;;;;1.63;1.40;;;14.90;99.90;;;;;;5319068;23;21001;-76
2022/06/25 02:34:49;;;;;;;1.73;1.63;;;14.90;99.90;;;;;;4992201;28;20428;-75
2022/06/25 02:37:16;;;;;;;3.00;1.50;;;14.90;99.90;;;;;;4992667;28;20199;-75
2022/06/25 02:39:41;;;;;;;1.83;1.30;;;14.80;99.90;;;;;;4992798;28;20192;-76
2022/06/25 02:42:07;;;;;;;1.67;1.57;;;14.80;99.90;;;;;;4992465;28;20430;-75
2022/06/25 02:44:32;;;;;;;3.03;1.63;;;14.80;99.90;;;;;;4992084;28;20197;-73
2022/06/25 02:46:58;;;;;;;1.60;1.50;;;14.90;99.90;;;;;;4992623;28;20175;-75
2022/06/25 02:49:23;;;;;;;6.73;1.20;;;14.90;99.90;;;;;;4992490;28;20179;-75
2022/06/25 02:51:49;;;;;;;3.17;1.33;;;14.90;99.90;;;;;;4992065;28;20199;-75
2022/06/25 02:54:15;;;;;;;2.87;1.70;;;15.00;99.90;;;;;;4992513;28;20237;-74
2022/06/25 02:59:24;;;;;;;1.10;1.10;;;15.00;99.90;;;;;;4992324;28;20551;-76
2022/06/25 03:01:51;;;;;;;1.43;1.20;;;15.00;99.90;;;;;;4991969;28;20434;-75
2022/06/25 03:04:16;;;;;;;1.13;1.03;;;15.00;99.90;;;;;;4992234;28;20171;-75
2022/06/25 03:06:42;;;;;;;2.83;1.57;;;15.00;99.90;;;;;;4992099;28;20422;-75
2022/06/25 03:09:07;;;;;;;6.37;1.83;;;14.90;99.90;;;;;;4992540;28;20210;-76
2022/06/25 03:11:33;;;;;;;1.50;1.50;;;14.90;99.90;;;;;;4990827;28;20222;-75
2022/06/25 03:13:58;;;;;;;4.43;2.03;;;14.80;99.90;;;;;;4992402;28;20184;-75
2022/06/25 03:16:24;;;;;;;2.93;1.97;;;14.80;99.90;;;;;;4995803;28;20210;-75
2022/06/25 03:18:50;;;;;;;1.43;1.33;;;14.70;99.90;;;;;;4996042;28;20178;-76
2022/06/25 03:21:16;;;;;;;2.00;1.87;;;14.70;99.90;;;;;;4995807;28;20198;-75
2022/06/25 03:23:42;;;;;;;2.30;2.10;;;14.60;99.90;;;;;;4995995;28;20508;-76
2022/06/25 03:26:07;;;;;;;1.70;1.60;;;14.60;99.90;;;;;;4996083;28;20663;-76
2022/06/25 03:28:33;;;;;;;2.07;1.97;;;14.50;99.90;;;;;;4995999;28;20233;-76
2022/06/25 03:30:58;;;;;;;2.10;2.00;;;14.60;99.90;;;;;;4995386;28;20198;-75
2022/06/25 03:33:24;;;;;;;2.87;2.67;;;14.50;99.90;;;;;;4996321;28;20230;-75
2022/06/25 03:35:49;;;;;;;4.50;2.30;;;14.50;99.90;;;;;;4996223;28;20206;-75
2022/06/25 03:38:15;;;;;;;2.00;1.90;;;14.40;99.90;;;;;;4996301;28;20178;-75
2022/06/25 03:40:40;;;;;;;2.20;1.67;;;14.40;99.90;;;;;;4995296;28;20171;-74
2022/06/25 03:43:06;;;;;;;1.90;1.80;;;14.40;99.90;;;;;;4995588;28;20171;-75
2022/06/25 03:45:31;;;;;;;2.30;2.20;;;14.40;99.90;;;;;;4995514;28;20171;-75
2022/06/25 03:47:57;;;;;;;5.27;1.93;;;14.40;99.90;;;;;;4995416;28;20202;-75
2022/06/25 03:50:23;;;;;;;3.80;2.00;;;14.40;99.90;;;;;;4995480;28;20663;-75
2022/06/25 03:52:49;;;;;;;2.03;1.93;;;14.40;99.90;;;;;;4995250;28;20195;-75
2022/06/25 03:55:16;;;;;;;3.80;2.00;;;14.40;99.90;;;;;;4995201;28;20266;-75
2022/06/25 03:57:41;;;;;;;2.33;2.23;;;14.40;99.90;;;;;;4995292;28;20458;-75
2022/06/25 04:00:08;;;;;;;2.90;2.57;;;14.40;99.90;;;;;;4995210;28;20453;-75
2022/06/25 04:02:34;;;;;;;2.30;2.20;;;14.40;99.90;;;;;;4994926;28;20703;-75
2022/06/25 04:05:00;;;;;;;2.20;2.10;;;14.40;99.90;;;;;;4995145;28;20450;-74
2022/06/25 04:07:25;;;;;;;2.30;2.03;;;14.50;99.90;;;;;;4995328;28;20183;-75
2022/06/25 04:09:51;;;;;;;2.47;2.37;;;14.50;99.90;;;;;;4994828;28;20185;-76
2022/06/25 04:12:17;;;;;;;2.33;2.23;;;14.50;99.90;;;;;;4994807;28;20199;-74
2022/06/25 04:14:42;;;;;;;2.70;1.53;;;14.50;99.90;;;;;;4995034;28;20187;-75
2022/06/25 04:17:08;;;;;;;6.00;2.17;;;14.60;99.90;;;;;;4995097;28;20210;-75
2022/06/25 04:19:39;;;;;;;1.77;1.63;;;14.60;99.90;;;;;;4994978;28;20183;-75
2022/06/25 04:22:09;;;;;;;1.93;1.83;;;14.70;99.90;;;;;;4994955;28;20431;-75
2022/06/25 04:24:35;;;;;;;1.90;1.80;;;14.70;99.90;;;;;;4994684;28;20422;-75
2022/06/25 04:27:01;;;;;;;1.77;1.70;;;14.70;99.90;;;;;;4994131;28;20417;-75
2022/06/25 04:29:27;;;;;;;1.80;1.70;;;14.80;99.90;;;;;;4994978;28;20486;-75
2022/06/25 04:31:53;;;;;;;1.60;1.50;;;14.80;99.90;;;;;;4994114;28;20457;-76
2022/06/25 04:34:18;;;;;;;1.67;1.57;;;14.90;99.90;;;;;;4994892;28;20175;-75
2022/06/25 04:36:44;;;;;;;4.30;1.80;;;14.90;99.90;;;;;;4994424;28;20210;-75
2022/06/25 04:39:10;;;;;;;1.40;1.30;;;15.00;99.90;;;;;;4994742;28;20453;-75
2022/06/25 04:41:35;;;;;;;1.77;1.67;;;15.10;99.90;;;;;;4994017;28;20230;-75
2022/06/25 04:44:01;;;;;;;1.63;1.53;;;15.20;99.90;;;;;;4994435;28;20186;-75
2022/06/25 04:46:29;;;;;;;1.30;1.30;;;15.30;99.90;;;;;;4994179;28;20177;-75
2022/06/25 04:48:57;;;;;;;1.70;1.60;;;15.40;99.90;;;;;;4994236;28;20197;-75
2022/06/25 04:51:24;;;;;;;1.67;1.50;;;15.60;99.90;;;;;;4993751;28;20453;-75
2022/06/25 04:53:56;;;;;;;2.00;1.80;;;15.70;99.90;;;;;;4994199;28;20834;-75
2022/06/25 04:56:26;;;;;;;3.17;1.60;;;15.80;99.90;;;;;;4994057;28;20500;-75
2022/06/25 04:58:52;;;;;;;2.77;1.63;;;16.00;99.90;;;;;;4994095;28;20453;-75
2022/06/25 05:01:18;;;;;;;2.53;1.40;;;16.10;99.90;;;;;;4993653;28;20437;-77
2022/06/25 05:03:44;;;;;;;4.20;1.10;;;16.90;99.90;;;;;;4994041;28;20415;-75
2022/06/25 05:06:09;;;;;;;2.60;0.97;;;18.90;99.90;;;;;;4994057;28;20792;-76
2022/06/25 05:08:35;;;;;;;2.10;1.00;;;20.90;99.90;;;;;;4993804;28;20195;-75
2022/06/25 05:11:01;;;;;;;1.47;0.80;;;23.00;99.90;;;;;;4993812;28;20207;-75
2022/06/25 05:13:27;;;;;;;0.97;0.67;;;24.80;99.90;;;;;;4992469;28;20943;-76
2022/06/25 05:15:53;;;;;;;2.77;0.70;;;26.00;99.90;;;;;;4994037;28;20986;-76
2022/06/25 05:18:19;;;;;;;5.70;1.13;;;26.60;99.90;;;;;;4994007;28;20418;-76
2022/06/25 05:20:45;;;;;;;0.93;0.87;;;27.50;99.90;;;;;;4993460;28;20258;-76
2022/06/25 05:23:11;;;;;;;2.00;1.20;;;27.90;99.90;;;;;;4993640;28;20179;-76
2022/06/25 05:25:37;;;;;;;1.17;0.70;;;27.90;99.90;;;;;;4993567;28;20430;-76
2022/06/25 05:28:03;;;;;;;0.80;0.70;;;28.00;99.90;;;;;;4993445;28;20418;-76
2022/06/25 05:30:29;;;;;;;5.93;3.27;;;28.20;99.90;;;;;;4993420;28;20664;-75
2022/06/25 05:32:55;;;;;;;3.43;0.83;;;28.20;99.90;;;;;;4992995;28;20468;-75
2022/06/25 05:35:20;;;;;;;1.20;0.87;;;28.10;99.90;;;;;;4993507;28;20213;-76
2022/06/25 05:37:46;;;;;;;0.87;0.83;;;28.00;99.90;;;;;;4993159;28;20176;-76
2022/06/25 05:40:12;;;;;;;0.93;0.73;;;27.50;99.90;;;;;;4993303;28;20230;-76
2022/06/25 05:42:37;;;;;;;1.63;0.90;;;27.00;99.90;;;;;;4993039;28;20226;-75
2022/06/25 05:45:04;;;;;;;2.10;0.70;;;26.60;99.90;;;;;;4993197;28;20178;-76
2022/06/25 05:47:29;;;;;;;1.97;0.90;;;25.90;99.90;;;;;;4993278;28;20167;-74
2022/06/25 05:49:55;;;;;;;0.60;0.60;;;25.40;99.90;;;;;;4992966;28;20417;-76
2022/06/25 05:52:21;;;;;;;0.80;0.80;;;24.90;99.90;;;;;;4992928;28;20221;-76
2022/06/25 05:54:46;;;;;;;1.43;0.80;;;24.60;99.90;;;;;;4992891;28;20194;-76
2022/06/25 05:57:12;;;;;;;2.47;0.77;;;24.70;99.90;;;;;;4993388;28;20207;-76
2022/06/25 05:59:37;;;;;;;0.80;0.80;;;24.50;99.90;;;;;;4992857;28;20183;-75
2022/06/25 06:02:03;;;;;;;1.17;0.83;;;24.20;99.90;;;;;;4992719;28;20242;-74
2022/06/25 06:04:29;;;;;;;0.70;0.70;;;24.00;99.90;;;;;;4992866;28;20183;-75
2022/06/25 06:06:54;;;;;;;3.50;0.87;;;24.00;99.90;;;;;;4992862;28;20194;-75
2022/06/25 06:09:20;;;;;;;1.13;0.73;;;23.90;99.90;;;;;;4993208;28;20187;-75
2022/06/25 06:11:45;;;;;;;0.90;0.90;;;23.90;99.90;;;;;;4992392;28;20281;-76
2022/06/25 06:14:11;;;;;;;2.50;0.80;;;23.70;99.90;;;;;;4992981;28;20183;-75
2022/06/25 06:16:36;;;;;;;0.93;0.93;;;23.60;99.90;;;;;;4992586;28;20690;-75
2022/06/25 06:19:02;;;;;;;1.03;0.93;;;23.80;99.90;;;;;;4992833;28;20178;-75
2022/06/25 06:21:28;;;;;;;3.17;1.30;;;24.00;99.90;;;;;;4992313;28;20195;-76
2022/06/25 06:23:53;;;;;;;0.83;0.83;;;23.80;99.90;;;;;;4992516;28;20214;-76
2022/06/25 06:26:19;;;;;;;1.70;1.00;;;24.10;99.90;;;;;;4992709;28;20226;-75
2022/06/25 06:28:45;;;;;;;1.10;1.00;;;24.20;99.90;;;;;;4992652;28;20180;-75
2022/06/25 06:31:11;;;;;;;3.57;1.10;;;24.10;99.90;;;;;;4992171;28;20456;-75
2022/06/25 06:33:36;;;;;;;0.80;0.80;;;24.20;99.90;;;;;;4992529;28;20254;-75
2022/06/25 06:36:02;;;;;;;2.03;0.90;;;24.30;99.90;;;;;;4992329;28;20214;-75
2022/06/25 06:38:28;;;;;;;1.07;0.97;;;24.50;99.90;;;;;;4992422;28;20179;-75
2022/06/25 06:40:53;;;;;;;1.00;0.90;;;24.30;99.90;;;;;;4992078;28;20636;-75
2022/06/25 06:43:19;;;;;;;2.60;0.90;;;24.40;99.90;;;;;;4992553;28;20175;-75
2022/06/25 06:45:44;;;;;;;0.90;0.90;;;24.30;99.90;;;;;;4992126;28;20662;-75
2022/06/25 06:48:10;;;;;;;1.00;1.00;;;23.70;99.90;;;;;;4992351;28;20190;-75
2022/06/25 06:50:36;;;;;;;2.20;1.00;;;24.00;99.90;;;;;;4991424;28;20261;-75
2022/06/25 06:53:01;;;;;;;3.20;0.80;;;24.50;99.90;;;;;;4992551;28;20210;-75
2022/06/25 06:55:27;;;;;;;3.47;1.10;;;24.50;99.90;;;;;;4992159;28;20554;-76
2022/06/25 06:57:52;;;;;;;1.27;1.07;;;24.80;99.90;;;;;;4992054;28;20186;-76
2022/06/25 07:00:18;;;;;;;3.40;1.47;;;24.90;99.90;;;;;;4992176;28;20194;-75
2022/06/25 07:02:43;;;;;;;1.00;0.90;;;25.00;99.90;;;;;;4992153;28;20738;-75
2022/06/25 07:05:09;;;;;;;1.03;0.80;;;25.10;99.90;;;;;;4992213;28;20582;-75
2022/06/25 07:07:34;;;;;;;2.60;1.27;;;24.90;99.90;;;;;;4992058;28;20179;-75
2022/06/25 07:10:00;;;;;;;2.70;1.10;;;25.00;99.90;;;;;;4992126;28;20183;-75
2022/06/25 07:12:26;;;;;;;1.77;0.90;;;25.30;99.90;;;;;;4991795;28;20561;-75
2022/06/25 07:14:51;;;;;;;2.03;1.87;;;25.20;99.90;;;;;;4992282;28;20207;-76
2022/06/25 07:17:17;;;;;;;2.50;0.80;;;25.40;99.90;;;;;;4992165;28;20245;-76
2022/06/25 07:19:42;;;;;;;1.43;1.33;;;25.60;99.90;;;;;;4992320;28;20180;-75
2022/06/25 07:22:07;;;;;;;1.13;1.03;;;25.50;99.90;;;;;;4991705;28;20188;-76
2022/06/25 07:24:33;;;;;;;1.13;0.90;;;25.70;99.90;;;;;;4991911;28;20206;-76
2022/06/25 07:26:58;;;;;;;1.40;0.90;;;25.60;99.90;;;;;;4991862;28;20183;-76
2022/06/25 07:29:24;;;;;;;6.43;0.87;;;25.40;99.90;;;;;;4991977;28;20210;-76
2022/06/25 07:31:50;;;;;;;2.00;1.40;;;25.50;99.90;;;;;;4991442;28;20210;-75
2022/06/25 07:34:16;;;;;;;5.70;0.90;;;25.80;99.90;;;;;;4991884;28;20551;-76
2022/06/25 07:36:42;;;;;;;1.80;0.97;;;25.90;99.90;;;;;;4991727;28;20199;-76
2022/06/25 07:39:08;;;;;;;1.63;1.20;;;26.20;99.90;;;;;;4991850;28;20419;-76
2022/06/25 07:41:33;;;;;;;2.00;1.13;;;26.10;99.90;;;;;;4991367;28;20192;-75
2022/06/25 07:43:59;;;;;;;1.13;1.03;;;25.70;99.90;;;;;;4992071;28;20468;-76
2022/06/25 07:46:24;;;;;;;5.03;1.47;;;25.90;99.90;;;;;;4992012;28;20167;-76
2022/06/25 07:48:50;;;;;;;2.67;1.20;;;26.20;99.90;;;;;;4991777;28;20175;-76
2022/06/25 07:53:59;;;;;;;3.03;1.20;;;26.50;99.90;;;;;;4991686;28;20674;-76
2022/06/25 07:56:25;;;;;;;1.43;1.23;;;26.90;99.90;;;;;;4991746;28;20446;-76
2022/06/25 07:58:50;;;;;;;2.47;1.10;;;26.90;99.90;;;;;;4991507;28;20187;-76
2022/06/25 08:01:16;;;;;;;2.60;1.23;;;26.90;99.90;;;;;;4991425;28;20192;-75
2022/06/25 08:03:42;;;;;;;1.13;1.03;;;26.80;99.90;;;;;;4994925;28;20446;-74
2022/06/25 08:06:08;;;;;;;1.20;1.10;;;27.50;99.90;;;;;;4994901;28;20191;-74
2022/06/25 08:08:33;;;;;;;1.33;1.03;;;28.20;99.90;;;;;;4994820;28;20183;-74
2022/06/25 08:10:59;;;;;;;1.73;1.30;;;28.30;99.90;;;;;;4993170;28;20446;-73
2022/06/25 08:13:26;;;;;;;3.60;1.33;;;28.20;99.90;;;;;;4994967;28;20186;-74
2022/06/25 08:15:52;;;;;;;1.63;1.00;;;27.90;99.90;;;;;;4993269;28;20659;-73
2022/06/25 08:18:18;;;;;;;1.20;1.10;;;27.60;99.90;;;;;;4994858;28;20439;-74
2022/06/25 08:20:44;;;;;;;1.40;1.07;;;27.50;99.90;;;;;;4994207;28;20167;-73
2022/06/25 08:23:10;;;;;;;2.50;2.30;;;26.90;99.90;;;;;;4994650;28;21010;-74
2022/06/25 08:25:35;;;;;;;3.87;2.13;;;26.20;99.90;;;;;;4994418;28;20175;-74
2022/06/25 08:28:01;;;;;;;2.07;1.23;;;25.50;99.90;;;;;;4994616;28;20210;-73
2022/06/25 08:30:27;;;;;;;2.20;1.30;;;25.20;99.90;;;;;;4994383;28;20176;-73
2022/06/25 08:32:54;;;;;;;0.80;0.80;;;25.00;99.90;;;;;;4994652;28;20728;-74
2022/06/25 08:35:20;;;;;;;1.33;1.10;;;25.40;99.90;;;;;;4994323;28;20847;-74
2022/06/25 08:37:48;;;;;;;3.60;1.30;;;25.20;99.90;;;;;;4994182;28;20552;-74
2022/06/25 08:40:16;;;;;;;2.50;1.30;;;25.10;99.90;;;;;;4994261;28;20205;-73
2022/06/25 08:42:42;;;;;;;2.57;1.23;;;24.80;99.90;;;;;;4994658;28;20431;-73
2022/06/25 08:45:08;;;;;;;2.50;1.20;;;25.00;99.90;;;;;;4995417;28;20983;-73
2022/06/25 08:47:34;;;;;;;2.00;1.00;;;25.50;99.90;;;;;;4995001;28;20186;-73
2022/06/25 08:50:02;;;;;;;2.20;1.43;;;26.80;99.90;;;;;;4994224;28;20410;-73
2022/06/25 08:52:28;;;;;;;2.57;1.30;;;27.70;99.90;;;;;;4992729;28;20253;-74
2022/06/25 08:54:55;;;;;;;2.10;1.30;;;28.50;99.90;;;;;;4994121;28;20417;-76
2022/06/25 08:57:21;;;;;;;2.20;1.23;;;28.00;99.90;;;;;;4994707;28;20450;-76
2022/06/25 08:59:47;;;;;;;0.90;0.90;;;27.10;99.90;;;;;;4994168;28;20414;-76
2022/06/25 09:02:13;;;;;;;3.37;0.97;;;26.40;99.90;;;;;;4993749;28;20442;-76
2022/06/25 09:04:38;;;;;;;1.57;1.40;;;25.80;99.90;;;;;;4993939;28;20168;-75
2022/06/25 09:07:13;;;;;;;2.00;1.30;;;26.10;99.90;;;;;;4993906;28;20171;-76
2022/06/25 09:09:39;;;;;;;1.87;1.00;;;27.10;99.90;;;;;;4994051;28;20750;-76
2022/06/25 09:12:08;;;;;;;4.00;1.30;;;27.40;99.90;;;;;;4993410;28;20489;-75
2022/06/25 09:14:36;;;;;;;1.47;1.37;;;27.90;99.90;;;;;;4993813;28;20758;-76
2022/06/25 09:17:14;;;;;;;3.90;1.27;;;27.80;99.90;;;;;;4994048;28;20963;-76
2022/06/25 09:19:43;;;;;;;1.33;1.07;;;27.70;99.90;;;;;;4993675;28;20838;-76
2022/06/25 09:22:14;;;;;;;1.20;1.10;;;28.00;99.90;;;;;;4993273;28;20426;-75
2022/06/25 09:24:55;;;;;;;3.03;1.40;;;27.90;99.90;;;;;;4993595;28;20430;-75
2022/06/25 09:27:38;;;;;;;1.73;1.30;;;27.80;99.90;;;;;;4993600;28;20470;-76
2022/06/25 09:30:08;;;;;;;0.97;0.97;;;27.50;99.90;;;;;;4993566;28;20856;-76
2022/06/25 09:32:42;;;;;;;2.03;1.07;;;27.30;99.90;;;;;;4993131;28;20521;-75
2022/06/25 09:35:09;;;;;;;3.03;1.10;;;27.50;99.90;;;;;;4993541;28;20838;-75
2022/06/25 09:37:35;;;;;;;3.43;1.50;;;28.00;99.90;;;;;;4993762;28;20454;-76
2022/06/25 09:40:02;;;;;;;0.90;0.90;;;28.80;99.90;;;;;;4993324;28;20411;-76
2022/06/25 09:42:34;;;;;;;1.10;1.10;;;29.30;99.90;;;;;;4992982;28;20222;-76
2022/06/25 09:45:09;;;;;;;1.20;1.10;;;29.50;99.90;;;;;;4993089;28;20494;-77
2022/06/25 09:47:43;;;;;;;0.90;0.90;;;29.40;99.90;;;;;;4993390;28;20957;-75
2022/06/25 09:50:17;;;;;;;1.50;1.50;;;29.20;99.90;;;;;;4993167;28;20411;-76
2022/06/25 09:52:59;;;;;;;1.33;1.20;;;29.60;99.90;;;;;;4992710;28;20434;-75
2022/06/25 09:55:26;;;;;;;5.13;1.30;;;30.00;99.90;;;;;;4993127;28;20415;-75
2022/06/25 09:57:53;;;;;;;2.13;1.10;;;30.00;99.90;;;;;;4993038;28;20549;-76
2022/06/25 10:00:20;;;;;;;1.50;1.40;;;30.40;99.90;;;;;;4992925;28;20414;-76
2022/06/25 10:02:48;;;;;;;6.93;1.47;;;30.80;99.90;;;;;;4992675;28;20465;-76
2022/06/25 10:05:17;;;;;;;1.63;1.53;;;30.90;99.90;;;;;;4992997;28;20414;-75
2022/06/25 10:08:04;;;;;;;1.40;1.30;;;30.40;99.90;;;;;;4992863;28;20423;-75
2022/06/25 10:10:42;;;;;;;1.10;1.10;;;30.00;99.90;;;;;;4992997;28;20442;-75
2022/06/25 10:13:08;;;;;;;1.10;1.10;;;29.80;99.90;;;;;;4993066;28;20407;-76
2022/06/25 10:15:35;;;;;;;4.80;1.10;;;30.30;99.90;;;;;;4992648;28;20449;-75
2022/06/25 10:18:03;;;;;;;1.87;1.10;;;30.40;99.90;;;;;;4993279;28;20439;-75
2022/06/25 10:20:30;;;;;;;2.30;1.43;;;30.50;99.90;;;;;;4992657;28;20433;-75
2022/06/25 10:22:56;;;;;;;1.83;1.73;;;30.50;99.90;;;;;;4992316;28;20454;-76
2022/06/25 10:25:24;;;;;;;2.50;1.10;;;30.50;99.90;;;;;;4991963;28;20414;-76
2022/06/25 10:28:02;;;;;;;1.47;0.90;;;30.50;99.90;;;;;;4992562;28;20414;-76
2022/06/25 10:30:43;;;;;;;1.10;0.83;;;30.80;99.90;;;;;;4991194;28;20450;-75
2022/06/25 10:33:08;;;;;;;1.77;1.30;;;30.00;99.90;;;;;;4992960;28;20422;-75
2022/06/25 10:35:41;;;;;;;1.17;1.07;;;29.10;99.90;;;;;;4992397;28;20780;-75
2022/06/25 10:38:21;;;;;;;3.03;1.23;;;28.70;99.90;;;;;;4992771;28;20595;-75
2022/06/25 10:40:57;;;;;;;1.83;1.47;;;28.90;99.90;;;;;;4991966;28;20525;-75
2022/06/25 10:43:37;;;;;;;1.27;1.20;;;28.30;99.90;;;;;;4992612;28;20447;-76
2022/06/25 10:46:27;;;;;;;1.97;1.20;;;28.30;99.90;;;;;;4992344;28;20469;-75
2022/06/25 10:49:28;;;;;;;2.40;1.17;;;28.30;99.90;;;;;;4989762;28;20435;-75
2022/06/25 10:51:53;;;;;;;5.50;1.27;;;28.50;99.90;;;;;;4991841;28;20442;-75
2022/06/25 10:54:22;;;;;;;2.40;1.13;;;29.40;99.90;;;;;;4992430;28;20842;-75
2022/06/25 10:56:50;;;;;;;2.00;1.10;;;29.50;99.90;;;;;;4992031;28;20198;-76
2022/06/25 10:59:37;;;;;;;1.13;1.00;;;30.00;99.90;;;;;;4992507;28;20415;-76
2022/06/25 11:02:05;;;;;;;3.00;1.20;;;29.70;99.90;;;;;;4988072;28;20446;-75
2022/06/25 11:04:32;;;;;;;1.97;1.00;;;29.60;99.90;;;;;;4992362;28;20407;-75
2022/06/25 11:07:14;;;;;;;1.90;1.37;;;29.70;99.90;;;;;;4992239;28;20840;-75
2022/06/25 11:09:50;;;;;;;3.70;1.00;;;29.70;99.90;;;;;;4992151;28;20414;-75
2022/06/25 11:12:17;;;;;;;3.73;1.40;;;29.60;99.90;;;;;;4991893;28;20435;-76
2022/06/25 11:14:42;;;;;;;1.60;1.07;;;29.30;99.90;;;;;;4992011;28;20430;-75
2022/06/25 11:17:09;;;;;;;1.33;1.23;;;29.00;99.90;;;;;;4991992;28;20458;-75
2022/06/25 11:19:37;;;;;;;1.10;1.07;;;28.70;99.90;;;;;;4990803;28;20171;-76
2022/06/25 11:22:04;;;;;;;3.90;1.17;;;28.50;99.90;;;;;;4991791;28;20462;-75
2022/06/25 11:24:32;;;;;;;1.60;1.50;;;28.10;99.90;;;;;;4992182;28;20904;-75
2022/06/25 11:29:53;;;;;;;1.90;1.13;;;28.00;99.90;;;;;;4992323;28;20465;-75
2022/06/25 11:32:20;;;;;;;1.00;1.00;;;28.30;99.90;;;;;;4991543;28;20470;-76
2022/06/25 11:34:51;;;;;;;1.27;0.90;;;28.00;99.90;;;;;;4991858;28;20928;-75
2022/06/25 11:37:18;;;;;;;1.30;1.20;;;28.10;99.90;;;;;;4995138;28;20458;-75
2022/06/25 11:39:46;;;;;;;1.90;0.97;;;28.10;99.90;;;;;;4995561;28;20935;-75
2022/06/25 11:42:12;;;;;;;1.20;1.00;;;28.50;99.90;;;;;;4995275;28;20426;-76
2022/06/25 11:44:44;;;;;;;3.37;0.97;;;28.70;99.90;;;;;;4995590;28;20410;-75
2022/06/25 11:47:20;;;;;;;1.40;1.30;;;28.60;99.90;;;;;;4995714;28;20424;-75
2022/06/25 11:49:46;;;;;;;1.97;1.27;;;27.90;99.90;;;;;;4995436;28;20561;-75
2022/06/25 11:52:13;;;;;;;1.50;1.40;;;27.30;99.90;;;;;;4995114;28;20436;-75
2022/06/25 11:54:40;;;;;;;1.70;1.30;;;27.20;99.90;;;;;;4995337;28;20419;-75
2022/06/25 11:57:09;;;;;;;2.50;1.60;;;27.20;99.90;;;;;;4995237;28;20454;-76
2022/06/25 11:59:37;;;;;;;1.50;1.40;;;27.20;99.90;;;;;;4995281;28;20542;-75
2022/06/25 12:02:05;;;;;;;4.53;2.20;;;27.30;99.90;;;;;;4994901;28;20434;-75
2022/06/25 12:04:32;;;;;;;1.17;1.17;;;27.60;99.90;;;;;;4995106;28;20425;-75
2022/06/25 12:06:59;;;;;;;1.23;1.13;;;27.60;99.90;;;;;;4994961;28;20431;-75
2022/06/25 12:09:25;;;;;;;1.80;1.43;;;27.50;99.90;;;;;;4995296;28;20979;-75
2022/06/25 12:11:51;;;;;;;2.63;1.20;;;27.30;99.90;;;;;;4994939;28;20434;-75
2022/06/25 12:14:22;;;;;;;2.70;1.17;;;27.30;99.90;;;;;;4995179;28;20516;-75
2022/06/25 12:16:48;;;;;;;1.70;1.43;;;27.70;99.90;;;;;;4994838;28;20863;-75
2022/06/25 12:19:14;;;;;;;2.10;1.43;;;27.80;99.90;;;;;;4994844;28;20419;-75
2022/06/25 12:21:39;;;;;;;2.13;1.17;;;27.60;99.90;;;;;;4994624;28;20441;-75
2022/06/25 12:24:06;;;;;;;1.03;0.97;;;27.60;99.90;;;;;;4994882;28;20266;-75
2022/06/25 12:26:34;;;;;;;1.00;1.00;;;27.60;99.90;;;;;;4995026;28;20172;-75
2022/06/25 12:29:09;;;;;;;1.00;1.00;;;27.60;99.90;;;;;;4994728;28;20414;-74
2022/06/25 12:31:36;;;;;;;1.20;1.10;;;27.60;99.90;;;;;;4994058;28;20473;-75
2022/06/25 12:34:03;;;;;;;1.77;1.00;;;27.50;99.90;;;;;;4994608;28;20414;-75
2022/06/25 12:36:28;;;;;;;2.67;1.73;;;27.60;99.90;;;;;;4994334;28;20446;-75
2022/06/25 12:38:54;;;;;;;1.30;1.17;;;27.50;99.90;;;;;;4993146;28;20472;-75
2022/06/25 12:41:19;;;;;;;2.63;1.30;;;27.40;99.90;;;;;;4994054;28;20195;-75
2022/06/25 12:43:46;;;;;;;0.80;0.70;;;27.40;99.90;;;;;;4994288;28;20207;-75
2022/06/25 12:46:14;;;;;;;2.20;1.00;;;27.40;99.90;;;;;;4994316;28;20202;-76
2022/06/25 12:48:40;;;;;;;4.10;1.30;;;27.40;99.90;;;;;;4993487;28;20406;-75
2022/06/25 12:51:16;;;;;;;1.30;1.20;;;27.60;99.90;;;;;;4993905;28;20446;-75
2022/06/25 12:53:43;;;;;;;1.37;1.27;;;27.90;99.90;;;;;;4994139;28;20182;-75
2022/06/25 12:56:10;;;;;;;2.60;1.50;;;27.60;99.90;;;;;;4994108;28;20523;-75
2022/06/25 12:58:37;;;;;;;6.23;1.23;;;27.40;99.90;;;;;;4994184;28;20417;-75
2022/06/25 13:01:18;;;;;;;1.87;1.17;;;27.30;99.90;;;;;;4993697;28;20529;-75
2022/06/25 13:03:44;;;;;;;1.67;1.00;;;27.10;99.90;;;;;;4993784;28;20481;-75
2022/06/25 13:06:10;;;;;;;1.97;1.00;;;27.20;99.90;;;;;;4993975;28;20513;-75
2022/06/25 13:08:35;;;;;;;2.63;1.53;;;27.20;99.90;;;;;;4994083;28;20840;-75
2022/06/25 13:11:01;;;;;;;0.83;0.83;;;27.30;99.90;;;;;;4993526;28;20211;-75
2022/06/25 13:13:26;;;;;;;1.60;0.90;;;27.20;99.90;;;;;;4994041;28;20167;-75
2022/06/25 13:15:52;;;;;;;2.60;0.97;;;27.10;99.90;;;;;;4993516;28;20544;-75
2022/06/25 13:18:17;;;;;;;1.90;1.00;;;26.90;99.90;;;;;;4994011;28;20180;-76
2022/06/25 13:20:46;;;;;;;2.43;1.07;;;26.80;99.90;;;;;;4993608;28;20179;-75
2022/06/25 13:23:12;;;;;;;1.43;1.33;;;26.80;99.90;;;;;;4993699;28;20199;-75
2022/06/25 13:25:38;;;;;;;1.30;1.17;;;26.90;99.90;;;;;;4993495;28;20740;-75
2022/06/25 13:28:03;;;;;;;1.90;0.90;;;27.00;99.90;;;;;;4993543;28;20179;-75
2022/06/25 13:30:29;;;;;;;1.70;0.93;;;27.20;99.90;;;;;;4993550;28;20960;-74
2022/06/25 13:32:54;;;;;;;1.97;1.00;;;27.40;99.90;;;;;;4993131;28;20215;-75
2022/06/25 13:35:20;;;;;;;2.50;1.60;;;27.40;99.90;;;;;;4993590;28;20191;-75
2022/06/25 13:37:47;;;;;;;3.10;0.83;;;27.50;99.90;;;;;;4993254;28;20211;-75
2022/06/25 13:40:13;;;;;;;5.03;0.90;;;27.50;99.90;;;;;;4993300;28;20171;-75
2022/06/25 13:42:38;;;;;;;1.90;0.97;;;27.30;99.90;;;;;;4993052;28;20516;-75
2022/06/25 13:45:05;;;;;;;1.20;0.80;;;27.20;99.90;;;;;;4993450;28;20660;-75
2022/06/25 13:47:30;;;;;;;0.67;0.67;;;27.20;99.90;;;;;;4993428;28;20183;-75
2022/06/25 13:49:56;;;;;;;1.47;1.00;;;27.00;99.90;;;;;;4993234;28;20915;-75
2022/06/25 13:52:21;;;;;;;1.90;0.90;;;26.90;99.90;;;;;;4993007;28;20200;-75
2022/06/25 13:54:47;;;;;;;1.57;1.00;;;27.00;99.90;;;;;;4993405;28;20183;-75
2022/06/25 13:57:13;;;;;;;1.00;0.80;;;27.00;99.90;;;;;;4993049;28;20233;-75
2022/06/25 13:59:38;;;;;;;1.90;0.77;;;27.10;99.90;;;;;;4992050;28;20670;-75
2022/06/25 14:02:07;;;;;;;1.00;0.70;;;27.10;99.90;;;;;;4992974;28;20199;-75
2022/06/25 14:04:33;;;;;;;2.60;1.13;;;27.00;99.90;;;;;;4992933;28;20211;-75
2022/06/25 14:06:59;;;;;;;0.60;0.60;;;27.00;99.90;;;;;;4992813;28;20425;-75
2022/06/25 14:09:24;;;;;;;0.80;0.80;;;27.10;99.90;;;;;;4992869;28;20418;-76
2022/06/25 14:11:50;;;;;;;2.47;1.10;;;27.20;99.90;;;;;;4992480;28;20217;-75
2022/06/25 14:14:16;;;;;;;0.70;0.70;;;27.20;99.90;;;;;;4992765;28;20670;-75
2022/06/25 14:16:42;;;;;;;0.93;0.83;;;27.00;99.90;;;;;;4992550;28;20203;-76
2022/06/25 14:19:08;;;;;;;1.00;0.70;;;27.00;99.90;;;;;;4992728;28;20180;-75
2022/06/25 14:21:34;;;;;;;2.17;0.80;;;27.00;99.90;;;;;;4992443;28;20438;-75
2022/06/25 14:24:00;;;;;;;0.90;0.90;;;27.20;99.90;;;;;;4992474;28;20182;-75
2022/06/25 14:26:26;;;;;;;1.27;0.83;;;27.30;99.90;;;;;;4992631;28;20415;-75
2022/06/25 14:28:52;;;;;;;0.60;0.60;;;27.30;99.90;;;;;;4992238;28;20274;-75
2022/06/25 14:31:18;;;;;;;1.30;1.00;;;27.50;99.90;;;;;;4990698;28;20465;-76
2022/06/25 14:33:43;;;;;;;2.00;0.70;;;27.60;99.90;;;;;;4992299;28;20517;-76